Norasia Valparaiso — A8CJ9 — position and weather

sailwx.info

Track history (hours):
 
Tides and Currents Weather Stations Pressure Air Temp Water Temp Dewpoint Dewpoint Depression Visibility Wind Speed Wind Dir Waves Ship Positions

Norasia Valparaiso

Last reported at 2014-Oct-30 03:09 UTC. Time now 2014-Oct-30 23:48 UTC.
Position S 38°56' E 145°42'.

Length 286.3 m; beam 32.2 m; draft 13.2 m.

Type: Cargo ship. MMSI: 636090659.

Date/timePositionNaut miles runAvg speedWind from/ knotsBaromVisibWave heightAir tempDewpointWater temp
2014-Oct-30 03:09S 38°56' E 145°42'813.8
2014-Oct-30 02:33S 39°00' E 145°52'1413.8
2014-Oct-30 01:33S 39°07' E 146°07'1313.2
2014-Oct-30 00:34S 39°10' E 146°24'1414.1
2014-Oct-29 23:34S 39°05' E 146°40'1313.3
2014-Oct-29 22:33S 39°03' E 146°57'1313.2
2014-Oct-29 21:34S 38°59' E 147°13'1312.6
2014-Oct-29 20:33S 38°55' E 147°29'12313.6
2014-Oct-29 11:32S 37°50' E 149°41'1313.4
2014-Oct-29 10:33S 37°41' E 149°54'1313.4
2014-Oct-29 09:33S 37°31' E 150°04'1413.5
2014-Oct-29 08:33S 37°18' E 150°08'  
2014-Oct-25 05:12S 34°00' E 151°27'200 8.1
2014-Oct-24 04:33S 37°11' E 150°12'1414.0
2014-Oct-24 03:33S 37°24' E 150°07'1414.1
2014-Oct-24 02:33S 37°38' E 150°02'1312.8
2014-Oct-24 01:33S 37°48' E 149°52'1413.8
2014-Oct-24 00:33S 37°56' E 149°38'1513.5
2014-Oct-23 23:25S 38°06' E 149°23'1213.6
2014-Oct-23 22:33S 38°13' E 149°11'1413.3
2014-Oct-23 21:32S 38°21' E 148°58'8113.2
2014-Oct-23 15:24S 39°01' E 147°27'1214.0
2014-Oct-23 14:33S 39°05' E 147°13'1413.8
2014-Oct-23 13:33S 39°10' E 146°56'1313.4
2014-Oct-23 12:33S 39°15' E 146°40'1313.2
2014-Oct-23 11:33S 39°17' E 146°23'1313.0
2014-Oct-23 10:33S 39°17' E 146°06'1313.1
2014-Oct-23 09:33S 39°17' E 145°50'13513.4
2014-Oct-22 23:29S 39°22' E 142°55'5313.6
2014-Oct-22 19:33S 39°24' E 141°46'  
Track history (hours):
 
Tides and Currents Weather Stations Pressure Air Temp Water Temp Dewpoint Dewpoint Depression Visibility Wind Speed Wind Dir Waves Ship Positions

Norasia Valparaiso

Last reported at 2014-Oct-30 03:09 UTC. Time now 2014-Oct-30 23:48 UTC.
Position S 38°56' E 145°42'.

Length 286.3 m; beam 32.2 m; draft 13.2 m.

Type: Cargo ship. MMSI: 636090659.

Date/timePositionNaut miles runAvg speedWind from/ knotsBaromVisibWave heightAir tempDewpointWater temp
2014-Oct-30 03:09S 38°56' E 145°42'813.8
2014-Oct-30 02:33S 39°00' E 145°52'1413.8
2014-Oct-30 01:33S 39°07' E 146°07'1313.2
2014-Oct-30 00:34S 39°10' E 146°24'1414.1
2014-Oct-29 23:34S 39°05' E 146°40'1313.3
2014-Oct-29 22:33S 39°03' E 146°57'1313.2
2014-Oct-29 21:34S 38°59' E 147°13'1312.6
2014-Oct-29 20:33S 38°55' E 147°29'12313.6
2014-Oct-29 11:32S 37°50' E 149°41'1313.4
2014-Oct-29 10:33S 37°41' E 149°54'1313.4
2014-Oct-29 09:33S 37°31' E 150°04'1413.5
2014-Oct-29 08:33S 37°18' E 150°08'  
2014-Oct-25 05:12S 34°00' E 151°27'200 8.1
2014-Oct-24 04:33S 37°11' E 150°12'1414.0
2014-Oct-24 03:33S 37°24' E 150°07'1414.1
2014-Oct-24 02:33S 37°38' E 150°02'1312.8
2014-Oct-24 01:33S 37°48' E 149°52'1413.8
2014-Oct-24 00:33S 37°56' E 149°38'1513.5
2014-Oct-23 23:25S 38°06' E 149°23'1213.6
2014-Oct-23 22:33S 38°13' E 149°11'1413.3
2014-Oct-23 21:32S 38°21' E 148°58'8113.2
2014-Oct-23 15:24S 39°01' E 147°27'1214.0
2014-Oct-23 14:33S 39°05' E 147°13'1413.8
2014-Oct-23 13:33S 39°10' E 146°56'1313.4
2014-Oct-23 12:33S 39°15' E 146°40'1313.2
2014-Oct-23 11:33S 39°17' E 146°23'1313.0
2014-Oct-23 10:33S 39°17' E 146°06'1313.1
2014-Oct-23 09:33S 39°17' E 145°50'13513.4
2014-Oct-22 23:29S 39°22' E 142°55'5313.6
2014-Oct-22 19:33S 39°24' E 141°46'  

Dump ship's entire track history